LLN weather

Levelland Municipal Airport
Levelland, Texas, United States

Public forecast

Using degrees Fahrenheit for public forecast. Weather courtesy of forecast.io.

Closest aviation weather report (METAR) to Levelland Municipal Airport

Closest report is Lubbock Preston Smith International Airport, 28.3 nm (52.3 km) ENE. Retrieved 2020/07/04 20:53 UTC (1 hour ago):

KLBB 042053Z VRB03KT 10SM FEW070CB SCT090 BKN150 35/12 A3001 RMK AO2 SLP103 CB W AND NE MOV E TCU DSNT NW-NE T03500117 58020

Closest aviation forecast (TAF) to Levelland Municipal Airport

Closest forecast is Lubbock Preston Smith International Airport, 28.3 nm (52.3 km) ENE. Retrieved 2020/07/04 18:22 UTC (4 hours ago):

TAF KLBB 041720Z 0418/0518 VRB06KT P6SM FEW090 SCT250 FM050000 11011KT P6SM SCT080 BKN250